Time;durP1;ratioP1;P1;durP2;ratioP2;P2;SDS_P1;SDS_P2;PMS_P1;PMS_P2;Temp;Humidity;BMP_temperature;BMP_pressure;BME280_temperature;BME280_humidity;BME280_pressure;Samples;Min_cycle;Max_cycle;Signal;HPM_P1;HPM_P2
2024/01/17 00:00:44;;;;;;;;;;;;;;;-3.93;100.00;100213.78;4971645;28;19973;-72
2024/01/17 00:03:09;;;;;;;;;;;;;;;-3.83;100.00;100217.88;4971340;28;19993;-72
2024/01/17 00:05:35;;;;;;;;;;;;;;;-3.78;100.00;100218.59;4989648;28;19929;-71
2024/01/17 00:08:00;;;;;;;;;;;;;;;-3.94;100.00;100212.06;4966516;28;19964;-72
2024/01/17 00:10:25;;;;;;;;;;;;;;;-3.95;100.00;100200.72;4972745;28;20490;-72
2024/01/17 00:12:51;;;;;;;;;;;;;;;-4.02;100.00;100195.69;4992823;28;19926;-72
2024/01/17 00:15:18;;;;;;;;;;;;;;;-4.03;100.00;100193.97;4974296;28;20474;-71
2024/01/17 00:17:43;;;;;;;;;;;;;;;-4.09;100.00;100187.13;4991573;28;20425;-72
2024/01/17 00:20:08;;;;;;;;;;;;;;;-4.03;100.00;100181.69;4971286;28;19929;-72
2024/01/17 00:22:33;;;;;;;;;;;;;;;-4.04;100.00;100184.38;4990615;28;19957;-72
2024/01/17 00:24:59;;;;;;;;;;;;;;;-3.99;100.00;100177.25;4972460;28;19958;-72
2024/01/17 00:27:26;;;;;;;;;;;;;;;-3.95;100.00;100174.50;4967544;28;20358;-71
2024/01/17 00:29:57;;;;;;;;;;;;;;;-4.02;100.00;100172.09;4971921;28;19926;-71
2024/01/17 00:32:23;;;;;;;;;;;;;;;-3.99;100.00;100170.22;4967538;28;20333;-72
2024/01/17 00:34:48;;;;;;;;;;;;;;;-3.97;100.00;100164.97;4990465;28;19932;-72
2024/01/17 00:37:13;;;;;;;;;;;;;;;-3.99;100.00;100156.28;4968554;28;20340;-71
2024/01/17 00:39:38;;;;;;;;;;;;;;;-3.97;100.00;100159.72;4971958;28;20301;-72
2024/01/17 00:42:04;;;;;;;;;;;;;;;-3.97;100.00;100143.97;4983387;28;20419;-72
2024/01/17 00:44:29;;;;;;;;;;;;;;;-4.26;100.00;100122.91;4968808;28;20432;-72
2024/01/17 00:46:55;;;;;;;;;;;;;;;-4.14;100.00;100134.81;4965442;28;19942;-72
2024/01/17 00:49:20;;;;;;;;;;;;;;;-4.13;100.00;100135.69;4968482;28;20667;-72
2024/01/17 00:51:45;;;;;;;;;;;;;;;-4.22;100.00;100129.78;4969892;28;19925;-71
2024/01/17 00:54:10;;;;;;;;;;;;;;;-4.16;100.00;100126.13;4990364;28;20645;-72
2024/01/17 00:56:36;;;;;;;;;;;;;;;-4.17;100.00;100128.81;4967218;28;20027;-72
2024/01/17 00:59:01;;;;;;;;;;;;;;;-4.20;100.00;100123.66;4984025;28;19929;-72
2024/01/17 01:01:26;;;;;;;;;;;;;;;-4.22;100.00;100114.06;4969632;28;19949;-72
2024/01/17 01:03:52;;;;;;;;;;;;;;;-4.18;100.00;100120.06;4967801;28;20268;-72
2024/01/17 01:06:17;;;;;;;;;;;;;;;-4.18;100.00;100111.34;4965544;28;20377;-72
2024/01/17 01:08:42;;;;;;;;;;;;;;;-4.06;100.00;100105.75;4967067;28;19929;-71
2024/01/17 01:11:07;;;;;;;;;;;;;;;-4.15;100.00;100098.16;4967666;28;20076;-72
2024/01/17 01:13:33;;;;;;;;;;;;;;;-4.20;100.00;100100.06;4967113;28;19922;-72
2024/01/17 01:15:58;;;;;;;;;;;;;;;-4.28;100.00;100093.25;4968314;28;19918;-72
2024/01/17 01:18:23;;;;;;;;;;;;;;;-4.32;100.00;100090.78;4984866;28;20393;-72
2024/01/17 01:20:48;;;;;;;;;;;;;;;-4.45;100.00;100082.41;4972051;28;20372;-72
2024/01/17 01:23:13;;;;;;;;;;;;;;;-4.37;100.00;100080.44;4970363;28;19977;-72
2024/01/17 01:25:39;;;;;;;;;;;;;;;-4.40;100.00;100078.72;4989959;28;20277;-72
2024/01/17 01:28:04;;;;;;;;;;;;;;;-4.32;100.00;100077.66;4968501;28;20347;-72
2024/01/17 01:30:30;;;;;;;;;;;;;;;-4.45;100.00;100082.41;4972755;28;20495;-72
2024/01/17 01:32:56;;;;;;;;;;;;;;;-4.38;100.00;100086.56;4972443;28;20364;-72
2024/01/17 01:35:21;;;;;;;;;;;;;;;-4.35;100.00;100083.84;4970342;28;19932;-72
2024/01/17 01:37:46;;;;;;;;;;;;;;;-4.37;100.00;100086.50;4972411;28;19979;-71
2024/01/17 01:40:11;;;;;;;;;;;;;;;-4.45;100.00;100082.41;4973733;28;20060;-72
2024/01/17 01:42:37;;;;;;;;;;;;;;;-4.43;100.00;100070.97;4968830;28;19922;-72
2024/01/17 01:45:02;;;;;;;;;;;;;;;-4.52;100.00;100063.38;4971010;28;20300;-71
2024/01/17 01:47:27;;;;;;;;;;;;;;;-4.45;100.00;100059.66;4971614;28;20381;-72
2024/01/17 01:49:52;;;;;;;;;;;;;;;-4.32;100.00;100060.16;4985565;28;20304;-71
2024/01/17 01:52:20;;;;;;;;;;;;;;;-4.35;100.00;100064.66;4972670;28;20615;-72
2024/01/17 01:54:45;;;;;;;;;;;;;;;-4.39;100.00;100074.38;4971035;28;20567;-72
2024/01/17 01:57:10;;;;;;;;;;;;;;;-4.38;100.00;100070.84;4988781;28;19932;-72
2024/01/17 01:59:35;;;;;;;;;;;;;;;-4.27;100.00;100060.91;4975829;28;19926;-71
2024/01/17 02:02:03;;;;;;;;;;;;;;;-4.45;100.00;100058.81;4988376;28;19926;-71
2024/01/17 02:04:28;;;;;;;;;;;;;;;-4.30;100.00;100058.34;4987374;28;22131;-71
2024/01/17 02:06:53;;;;;;;;;;;;;;;-4.38;100.00;100048.09;4972320;28;19928;-71
2024/01/17 02:09:19;;;;;;;;;;;;;;;-4.52;100.00;100040.63;4972861;28;20297;-72
2024/01/17 02:11:44;;;;;;;;;;;;;;;-4.57;100.00;100037.28;4969214;28;20483;-71
2024/01/17 02:14:09;;;;;;;;;;;;;;;-4.45;100.00;100033.44;4972355;28;20425;-71
2024/01/17 02:16:34;;;;;;;;;;;;;;;-4.54;100.00;100031.97;4955193;28;19960;-71
2024/01/17 02:19:00;;;;;;;;;;;;;;;-4.53;100.00;100015.34;4987309;28;20392;-71
2024/01/17 02:21:26;;;;;;;;;;;;;;;-4.53;100.00;100019.72;4970705;28;20237;-71
2024/01/17 02:23:51;;;;;;;;;;;;;;;-4.33;100.00;100013.03;4973360;28;20547;-71
2024/01/17 02:26:16;;;;;;;;;;;;;;;-4.46;100.00;100010.78;4969171;28;19975;-71
2024/01/17 02:28:42;;;;;;;;;;;;;;;-4.50;100.00;100003.91;4971745;28;19992;-71
2024/01/17 02:31:07;;;;;;;;;;;;;;;-4.54;100.00;100008.38;4973814;28;20016;-71
2024/01/17 02:33:32;;;;;;;;;;;;;;;-4.48;100.00;99996.84;4970898;28;19918;-71
2024/01/17 02:35:57;;;;;;;;;;;;;;;-4.53;100.00;99997.00;4969916;28;19925;-71
2024/01/17 02:38:22;;;;;;;;;;;;;;;-4.58;100.00;99995.41;4968773;28;20340;-71
2024/01/17 02:40:48;;;;;;;;;;;;;;;-4.58;100.00;99990.19;4969589;28;19977;-71
2024/01/17 02:43:13;;;;;;;;;;;;;;;-4.43;100.00;99978.38;4970970;28;20013;-72
2024/01/17 02:45:38;;;;;;;;;;;;;;;-4.39;100.00;99972.16;4969968;28;20115;-71
2024/01/17 02:48:03;;;;;;;;;;;;;;;-4.41;100.00;99974.81;4968521;28;19948;-71
2024/01/17 02:50:29;;;;;;;;;;;;;;;-4.44;100.00;99972.28;4970041;28;19925;-71
2024/01/17 02:52:54;;;;;;;;;;;;;;;-4.45;100.00;99967.94;4969208;28;20427;-71
2024/01/17 02:55:20;;;;;;;;;;;;;;;-4.48;100.00;99954.91;4984158;28;19930;-71
2024/01/17 02:57:45;;;;;;;;;;;;;;;-4.55;100.00;99956.03;4968856;28;19941;-71
2024/01/17 03:00:10;;;;;;;;;;;;;;;-4.50;100.00;99950.66;4969772;28;20052;-71
2024/01/17 03:02:36;;;;;;;;;;;;;;;-4.50;100.00;99943.63;4969914;28;19921;-71
2024/01/17 03:05:01;;;;;;;;;;;;;;;-4.60;100.00;99945.66;4969972;28;19925;-71
2024/01/17 03:07:27;;;;;;;;;;;;;;;-4.69;100.00;99945.97;4971507;28;20343;-71
2024/01/17 03:09:52;;;;;;;;;;;;;;;-4.66;100.00;99935.41;4971039;28;19921;-71
2024/01/17 03:12:17;;;;;;;;;;;;;;;-4.40;100.00;99939.00;4969936;28;19921;-71
2024/01/17 03:14:42;;;;;;;;;;;;;;;-4.34;100.00;99930.91;4972726;28;19929;-71
2024/01/17 03:17:08;;;;;;;;;;;;;;;-4.47;100.00;99935.69;4971790;28;20442;-70
2024/01/17 03:19:33;;;;;;;;;;;;;;;-4.31;100.00;99922.13;4970138;28;20360;-71
2024/01/17 03:21:58;;;;;;;;;;;;;;;-4.40;100.00;99921.50;4972068;28;20372;-70
2024/01/17 03:24:24;;;;;;;;;;;;;;;-4.41;100.00;99914.53;4988035;28;19922;-70
2024/01/17 03:26:49;;;;;;;;;;;;;;;-4.32;100.00;99902.06;4969953;28;19968;-71
2024/01/17 03:29:14;;;;;;;;;;;;;;;-4.45;100.00;99897.19;4971344;28;19929;-71
2024/01/17 03:31:39;;;;;;;;;;;;;;;-4.25;100.00;99887.88;4970997;28;19932;-71
2024/01/17 03:34:05;;;;;;;;;;;;;;;-4.46;100.00;99892.00;4971625;28;19922;-71
2024/01/17 03:36:30;;;;;;;;;;;;;;;-4.40;100.00;99892.66;4969105;28;20470;-71
2024/01/17 03:38:55;;;;;;;;;;;;;;;-4.24;100.00;99893.03;4967411;28;20371;-71
2024/01/17 03:41:20;;;;;;;;;;;;;;;-4.41;100.00;99874.38;4966977;28;20458;-71
2024/01/17 03:43:45;;;;;;;;;;;;;;;-4.20;100.00;99871.97;4969517;28;20397;-71
2024/01/17 03:46:11;;;;;;;;;;;;;;;-4.19;100.00;99869.28;4969027;28;20370;-71
2024/01/17 03:48:36;;;;;;;;;;;;;;;-4.28;100.00;99870.44;4989067;28;20307;-71
2024/01/17 03:51:01;;;;;;;;;;;;;;;-4.40;100.00;99863.84;4967615;28;20012;-71
2024/01/17 03:53:26;;;;;;;;;;;;;;;-4.29;100.00;99854.78;4968757;28;19965;-71
2024/01/17 03:55:51;;;;;;;;;;;;;;;-4.23;100.00;99844.94;4972880;28;19968;-71
2024/01/17 03:58:17;;;;;;;;;;;;;;;-4.22;100.00;99836.19;4967711;28;19922;-71
2024/01/17 04:00:42;;;;;;;;;;;;;;;-4.29;100.00;99833.81;4968176;28;21374;-70
2024/01/17 04:03:13;;;;;;;;;;;;;;;-4.30;100.00;99834.72;4969465;28;20700;-71
2024/01/17 04:05:40;;;;;;;;;;;;;;;-4.31;100.00;99817.28;4969671;28;20016;-71
2024/01/17 04:08:05;;;;;;;;;;;;;;;-4.19;100.00;99813.41;4968100;28;20324;-71
2024/01/17 04:10:31;;;;;;;;;;;;;;;-4.39;100.00;99805.28;4989535;28;19926;-70
2024/01/17 04:12:56;;;;;;;;;;;;;;;-4.44;100.00;99804.56;4966662;28;20426;-71
2024/01/17 04:15:21;;;;;;;;;;;;;;;-4.42;100.00;99808.00;4966726;28;20298;-71
2024/01/17 04:17:46;;;;;;;;;;;;;;;-4.34;100.00;99788.53;4967963;28;20380;-70
2024/01/17 04:20:12;;;;;;;;;;;;;;;-4.20;100.00;99786.31;4967627;28;19926;-71
2024/01/17 04:22:37;;;;;;;;;;;;;;;-4.27;100.00;99777.81;4967395;28;19926;-71
2024/01/17 04:25:02;;;;;;;;;;;;;;;-4.35;100.00;99768.50;4968966;28;19922;-70
2024/01/17 04:27:28;;;;;;;;;;;;;;;-4.33;100.00;99762.28;4973918;28;19925;-70
2024/01/17 04:29:53;;;;;;;;;;;;;;;-4.32;100.00;99756.13;4975508;28;19980;-71
2024/01/17 04:32:18;;;;;;;;;;;;;;;-4.42;100.00;99739.84;4973663;28;19925;-70
2024/01/17 04:34:44;;;;;;;;;;;;;;;-4.31;100.00;99731.63;4973732;28;19961;-70
2024/01/17 04:37:09;;;;;;;;;;;;;;;-4.24;100.00;99727.06;4974282;28;19932;-70
2024/01/17 04:39:34;;;;;;;;;;;;;;;-4.32;100.00;99722.06;4974445;28;19968;-70
2024/01/17 04:42:00;;;;;;;;;;;;;;;-4.23;100.00;99720.88;4972183;28;19983;-70
2024/01/17 04:44:25;;;;;;;;;;;;;;;-4.15;100.00;99711.00;4975430;28;19928;-71
2024/01/17 04:46:50;;;;;;;;;;;;;;;-4.19;100.00;99701.50;4973297;28;19964;-71
2024/01/17 04:49:15;;;;;;;;;;;;;;;-4.17;100.00;99699.69;4973615;28;20089;-70
2024/01/17 04:51:41;;;;;;;;;;;;;;;-4.19;100.00;99700.69;4972751;28;19961;-70
2024/01/17 04:54:07;;;;;;;;;;;;;;;-4.33;100.00;99694.13;4975449;28;20033;-70
2024/01/17 04:56:32;;;;;;;;;;;;;;;-4.23;100.00;99692.03;4976049;28;19952;-70
2024/01/17 04:58:57;;;;;;;;;;;;;;;-4.15;100.00;99689.19;4973332;28;20008;-71
2024/01/17 05:01:22;;;;;;;;;;;;;;;-4.12;100.00;99687.28;4974549;28;19992;-70
2024/01/17 05:03:48;;;;;;;;;;;;;;;-4.38;100.00;99689.06;4974961;28;20079;-70
2024/01/17 05:06:13;;;;;;;;;;;;;;;-4.32;100.00;99687.13;4976016;28;19973;-70
2024/01/17 05:08:38;;;;;;;;;;;;;;;-4.33;100.00;99688.88;4977266;28;19932;-70
2024/01/17 05:11:04;;;;;;;;;;;;;;;-4.40;100.00;99682.19;4975603;28;19922;-70
2024/01/17 05:13:29;;;;;;;;;;;;;;;-4.31;100.00;99687.06;4975854;28;19926;-70
2024/01/17 05:15:54;;;;;;;;;;;;;;;-4.34;100.00;99681.09;4975499;28;19972;-70
2024/01/17 05:18:19;;;;;;;;;;;;;;;-4.28;100.00;99673.88;4990593;28;20057;-70
2024/01/17 05:20:45;;;;;;;;;;;;;;;-4.24;100.00;99659.75;4990442;28;19979;-70
2024/01/17 05:23:10;;;;;;;;;;;;;;;-4.26;100.00;99653.69;4991406;28;20281;-70
2024/01/17 05:25:35;;;;;;;;;;;;;;;-4.25;100.00;99654.56;4970920;28;20008;-70
2024/01/17 05:28:00;;;;;;;;;;;;;;;-4.21;100.00;99650.91;4973922;28;19960;-70
2024/01/17 05:30:26;;;;;;;;;;;;;;;-4.11;100.00;99644.44;4990159;28;19975;-70
2024/01/17 05:32:51;;;;;;;;;;;;;;;-4.40;100.00;99648.09;4988975;28;19922;-70
2024/01/17 05:35:17;;;;;;;;;;;;;;;-4.37;100.00;99635.75;4988800;28;19929;-70
2024/01/17 05:37:42;;;;;;;;;;;;;;;-4.34;100.00;99640.00;4971558;28;19933;-70
2024/01/17 05:40:08;;;;;;;;;;;;;;;-4.45;100.00;99637.75;4994896;28;19976;-70
2024/01/17 05:42:33;;;;;;;;;;;;;;;-4.47;100.00;99633.50;4974515;28;19956;-70
2024/01/17 05:44:59;;;;;;;;;;;;;;;-4.42;100.00;99621.09;4976047;28;20376;-70
2024/01/17 05:47:24;;;;;;;;;;;;;;;-4.50;100.00;99610.88;4973864;28;19930;-69
2024/01/17 05:49:49;;;;;;;;;;;;;;;-4.46;100.00;99599.38;4987470;28;19938;-69
2024/01/17 05:52:14;;;;;;;;;;;;;;;-4.44;100.00;99604.56;4975204;28;19921;-70
2024/01/17 05:54:40;;;;;;;;;;;;;;;-4.46;100.00;99601.16;4973091;28;19933;-70
2024/01/17 05:57:05;;;;;;;;;;;;;;;-4.52;100.00;99595.22;4975967;28;19976;-70
2024/01/17 05:59:30;;;;;;;;;;;;;;;-4.50;100.00;99592.53;4991854;28;19972;-69
2024/01/17 06:01:55;;;;;;;;;;;;;;;-4.56;100.00;99582.28;4977582;28;19922;-70
2024/01/17 06:04:20;;;;;;;;;;;;;;;-4.56;100.00;99577.88;4993780;28;19926;-70
2024/01/17 06:06:46;;;;;;;;;;;;;;;-4.57;100.00;99573.56;4986256;28;19922;-69
2024/01/17 06:09:11;;;;;;;;;;;;;;;-4.55;100.00;99578.75;4982144;28;19932;-70
2024/01/17 06:11:36;;;;;;;;;;;;;;;-4.59;100.00;99574.53;4980144;28;20049;-70
2024/01/17 06:14:01;;;;;;;;;;;;;;;-4.59;100.00;99569.28;4995509;28;19961;-69
2024/01/17 06:16:27;;;;;;;;;;;;;;;-4.64;100.00;99552.88;4980167;28;20024;-70
2024/01/17 06:18:54;;;;;;;;;;;;;;;-4.61;100.00;99560.63;4978500;28;19922;-69
2024/01/17 06:21:20;;;;;;;;;;;;;;;-4.56;100.00;99559.53;4979018;28;20384;-69
2024/01/17 06:23:45;;;;;;;;;;;;;;;-4.60;100.00;99562.34;4978078;28;19920;-70
2024/01/17 06:26:10;;;;;;;;;;;;;;;-4.57;100.00;99562.25;4980421;28;19969;-70
2024/01/17 06:28:35;;;;;;;;;;;;;;;-4.57;100.00;99562.25;4978077;28;20356;-69
2024/01/17 06:31:01;;;;;;;;;;;;;;;-4.56;100.00;99548.22;4980454;28;20353;-69
2024/01/17 06:33:26;;;;;;;;;;;;;;;-4.53;100.00;99546.34;4981228;28;20473;-69
2024/01/17 06:35:51;;;;;;;;;;;;;;;-4.55;100.00;99542.91;4979198;28;19917;-69
2024/01/17 06:38:16;;;;;;;;;;;;;;;-4.55;100.00;99548.16;4979519;28;19926;-69
2024/01/17 06:40:41;;;;;;;;;;;;;;;-4.50;100.00;99550.59;4979879;28;19976;-70
2024/01/17 06:43:07;;;;;;;;;;;;;;;-4.47;100.00;99541.78;4978414;28;20253;-69
2024/01/17 06:45:33;;;;;;;;;;;;;;;-4.46;100.00;99541.72;4976541;28;19918;-70
2024/01/17 06:48:01;;;;;;;;;;;;;;;-4.48;100.00;99535.69;4976884;28;20349;-70
2024/01/17 06:50:26;;;;;;;;;;;;;;;-4.48;100.00;99529.59;4978639;28;20497;-69
2024/01/17 06:52:51;;;;;;;;;;;;;;;-4.48;100.00;99526.97;4991844;28;19922;-69
2024/01/17 06:55:16;;;;;;;;;;;;;;;-4.49;100.00;99538.38;4993721;28;19926;-69
2024/01/17 06:57:42;;;;;;;;;;;;;;;-4.49;100.00;99530.50;4975574;28;20031;-70
2024/01/17 07:00:07;;;;;;;;;;;;;;;-4.43;100.00;99527.69;4976336;28;19925;-69
2024/01/17 07:02:33;;;;;;;;;;;;;;;-4.45;100.00;99513.78;4977843;28;19917;-70
2024/01/17 07:04:58;;;;;;;;;;;;;;;-4.42;100.00;99517.13;4978469;28;19917;-69
2024/01/17 07:07:23;;;;;;;;;;;;;;;-4.48;100.00;99506.03;4995867;28;19920;-69
2024/01/17 07:09:48;;;;;;;;;;;;;;;-4.44;100.00;99500.59;4977542;28;19924;-69
2024/01/17 07:12:14;;;;;;;;;;;;;;;-4.40;100.00;99494.34;4978829;28;20345;-70
2024/01/17 07:14:39;;;;;;;;;;;;;;;-4.45;100.00;99491.03;4977259;28;19965;-69
2024/01/17 07:17:06;;;;;;;;;;;;;;;-4.44;100.00;99486.66;4978423;28;19921;-70
2024/01/17 07:19:34;;;;;;;;;;;;;;;-4.45;100.00;99475.31;4991828;28;20384;-69
2024/01/17 07:21:59;;;;;;;;;;;;;;;-4.37;100.00;99483.75;4973732;28;19944;-70
2024/01/17 07:24:25;;;;;;;;;;;;;;;-4.35;100.00;99472.34;4975601;28;20377;-70
2024/01/17 07:26:50;;;;;;;;;;;;;;;-4.42;100.00;99466.50;4987943;28;19917;-70
2024/01/17 07:29:15;;;;;;;;;;;;;;;-4.32;100.00;99461.75;4975952;28;19949;-69
2024/01/17 07:31:40;;;;;;;;;;;;;;;-4.34;100.00;99463.56;4978325;28;19965;-70
2024/01/17 07:34:06;;;;;;;;;;;;;;;-4.41;100.00;99457.72;4977979;28;19922;-69
2024/01/17 07:36:31;;;;;;;;;;;;;;;-4.43;100.00;99446.44;4970801;28;19922;-69
2024/01/17 07:38:56;;;;;;;;;;;;;;;-4.39;100.00;99443.63;4963252;28;19926;-69
2024/01/17 07:41:21;;;;;;;;;;;;;;;-4.39;100.00;99434.94;4979076;28;19976;-70
2024/01/17 07:43:48;;;;;;;;;;;;;;;-4.34;100.00;99435.59;4994863;28;21662;-69
2024/01/17 07:46:13;;;;;;;;;;;;;;;-4.29;100.00;99431.03;4978820;28;19922;-69
2024/01/17 07:48:39;;;;;;;;;;;;;;;-4.43;100.00;99401.91;4971240;28;19958;-70
2024/01/17 07:51:05;;;;;;;;;;;;;;;-4.21;100.00;99425.47;4970485;28;20004;-70
2024/01/17 07:53:30;;;;;;;;;;;;;;;-4.19;100.00;99418.41;4972522;28;20392;-69
2024/01/17 07:55:56;;;;;;;;;;;;;;;-4.18;100.00;99414.03;4969521;28;19972;-69
2024/01/17 07:58:21;;;;;;;;;;;;;;;-4.17;100.00;99418.38;4970161;28;20372;-69
2024/01/17 08:00:47;;;;;;;;;;;;;;;-4.14;100.00;99415.63;4970951;28;19922;-70
2024/01/17 08:03:12;;;;;;;;;;;;;;;-4.15;100.00;99413.91;4976234;28;20447;-70
2024/01/17 08:05:37;;;;;;;;;;;;;;;-4.13;100.00;99412.94;4969951;28;19926;-70
2024/01/17 08:08:03;;;;;;;;;;;;;;;-4.07;100.00;99406.56;4972292;28;19976;-70
2024/01/17 08:10:28;;;;;;;;;;;;;;;-4.04;100.00;99403.00;4970425;28;20215;-70
2024/01/17 08:12:54;;;;;;;;;;;;;;;-4.03;100.00;99395.06;4973152;28;19925;-70
2024/01/17 08:15:20;;;;;;;;;;;;;;;-4.01;100.00;99380.13;4970696;28;19929;-69
2024/01/17 08:17:47;;;;;;;;;;;;;;;-3.97;100.00;99386.09;4969102;28;20393;-69
2024/01/17 08:20:12;;;;;;;;;;;;;;;-3.92;100.00;99385.00;4971738;28;20420;-70
2024/01/17 08:22:38;;;;;;;;;;;;;;;-3.89;100.00;99384.00;4971750;28;20296;-70
2024/01/17 08:25:04;;;;;;;;;;;;;;;-3.83;100.00;99382.88;4968533;28;19922;-70
2024/01/17 08:27:29;;;;;;;;;;;;;;;-3.77;100.00;99382.63;4974258;28;20068;-70
2024/01/17 08:29:54;;;;;;;;;;;;;;;-3.71;100.00;99373.66;4988723;28;20023;-69
2024/01/17 08:32:19;;;;;;;;;;;;;;;-3.67;100.00;99369.97;4976032;28;19922;-70
2024/01/17 08:34:45;;;;;;;;;;;;;;;-3.67;100.00;99370.84;4966842;28;19969;-70
2024/01/17 08:37:10;;;;;;;;;;;;;;;-3.68;100.00;99361.25;4976841;28;20156;-70
2024/01/17 08:39:35;;;;;;;;;;;;;;;-3.64;100.00;99351.47;4977492;28;20387;-70
2024/01/17 08:42:01;;;;;;;;;;;;;;;-3.71;100.00;99344.81;4977932;28;20324;-70
2024/01/17 08:44:26;;;;;;;;;;;;;;;-3.69;100.00;99348.19;4974950;28;19922;-70
2024/01/17 08:46:52;;;;;;;;;;;;;;;-3.73;100.00;99339.63;4989965;28;19961;-70
2024/01/17 08:49:17;;;;;;;;;;;;;;;-3.64;100.00;99335.75;4971322;28;20017;-70
2024/01/17 08:51:42;;;;;;;;;;;;;;;-3.68;100.00;99331.53;4976827;28;20327;-70
2024/01/17 08:54:07;;;;;;;;;;;;;;;-3.66;100.00;99329.72;4979383;28;19914;-70
2024/01/17 08:56:33;;;;;;;;;;;;;;;-3.62;100.00;99334.78;4962852;28;20385;-70
2024/01/17 08:58:58;;;;;;;;;;;;;;;-3.68;100.00;99332.41;4975719;28;20376;-70
2024/01/17 09:01:23;;;;;;;;;;;;;;;-3.64;100.00;99327.88;4976263;28;20344;-70
2024/01/17 09:03:48;;;;;;;;;;;;;;;-3.68;100.00;99321.03;4980318;28;19999;-70
2024/01/17 09:06:14;;;;;;;;;;;;;;;-3.61;100.00;99322.50;4977260;28;19968;-70
2024/01/17 09:08:39;;;;;;;;;;;;;;;-3.51;100.00;99317.69;4978707;28;20008;-70
2024/01/17 09:11:05;;;;;;;;;;;;;;;-3.50;100.00;99314.16;4992820;28;19921;-70
2024/01/17 09:13:31;;;;;;;;;;;;;;;-3.43;100.00;99298.97;4980050;28;20029;-70
2024/01/17 09:15:56;;;;;;;;;;;;;;;-3.36;100.00;99292.53;4980997;28;20447;-70
2024/01/17 09:18:21;;;;;;;;;;;;;;;-3.32;100.00;99287.09;4979478;28;19933;-70
2024/01/17 09:20:47;;;;;;;;;;;;;;;-3.31;100.00;99274.81;4977556;28;19976;-70
2024/01/17 09:23:13;;;;;;;;;;;;;;;-3.27;100.00;99280.75;4977243;28;20379;-70
2024/01/17 09:25:38;;;;;;;;;;;;;;;-3.22;100.00;99276.16;4976766;28;20221;-70
2024/01/17 09:28:03;;;;;;;;;;;;;;;-3.15;100.00;99269.72;4991263;28;19926;-70
2024/01/17 09:30:28;;;;;;;;;;;;;;;-3.13;100.00;99269.63;4988722;28;19921;-70
2024/01/17 09:32:54;;;;;;;;;;;;;;;-3.08;100.00;99268.50;4975700;28;20415;-70
2024/01/17 09:35:19;;;;;;;;;;;;;;;-2.95;100.00;99275.78;4974775;28;20364;-70
2024/01/17 09:37:44;;;;;;;;;;;;;;;-2.83;100.00;99275.22;4974012;28;19922;-70
2024/01/17 09:40:10;;;;;;;;;;;;;;;-2.74;100.00;99271.31;4972786;28;19925;-70
2024/01/17 09:42:35;;;;;;;;;;;;;;;-2.72;100.00;99269.47;4997786;28;20032;-70
2024/01/17 09:45:01;;;;;;;;;;;;;;;-2.68;100.00;99268.41;4969679;28;20004;-70
2024/01/17 09:47:26;;;;;;;;;;;;;;;-2.63;100.00;99270.78;4974456;28;19922;-70
2024/01/17 09:49:51;;;;;;;;;;;;;;;-2.73;100.00;99271.22;4995234;28;20002;-71
2024/01/17 09:52:17;;;;;;;;;;;;;;;-2.63;100.00;99273.41;4980254;28;19925;-70
2024/01/17 09:54:43;;;;;;;;;;;;;;;-2.52;100.00;99270.25;4994876;28;20049;-70
2024/01/17 09:57:09;;;;;;;;;;;;;;;-2.44;100.00;99270.75;4995421;28;19975;-70
2024/01/17 09:59:46;;;;;;;;;;;;;;;-2.42;100.00;99264.47;4993660;28;19925;-70
2024/01/17 10:02:12;;;;;;;;;;;;;;;-2.38;100.00;99264.31;4993443;28;19999;-71
2024/01/17 10:04:37;;;;;;;;;;;;;;;-2.34;100.00;99250.09;4995631;28;19918;-70
2024/01/17 10:07:02;;;;;;;;;;;;;;;-2.48;100.00;99253.41;4995322;28;19940;-70
2024/01/17 10:09:28;;;;;;;;;;;;;;;-2.41;100.00;99247.78;4974469;28;19980;-70
2024/01/17 10:11:53;;;;;;;;;;;;;;;-2.37;100.00;99248.47;4978896;28;19968;-70
2024/01/17 10:14:20;;;;;;;;;;;;;;;-2.33;100.00;99239.50;4978980;28;19928;-70
2024/01/17 10:16:46;;;;;;;;;;;;;;;-2.30;100.00;99233.25;4987344;28;19965;-70
2024/01/17 10:19:11;;;;;;;;;;;;;;;-2.34;100.00;99231.72;4974332;28;19926;-70
2024/01/17 10:21:36;;;;;;;;;;;;;;;-2.26;100.00;99227.75;4980784;28;19917;-70
2024/01/17 10:24:01;;;;;;;;;;;;;;;-2.28;100.00;99231.41;4978144;28;19952;-70
2024/01/17 10:26:27;;;;;;;;;;;;;;;-2.36;100.00;99218.63;4977739;28;20395;-70
2024/01/17 10:28:52;;;;;;;;;;;;;;;-2.36;100.00;99226.50;4979890;28;19960;-70
2024/01/17 10:31:20;;;;;;;;;;;;;;;-2.36;100.00;99216.00;4981603;28;20194;-71
2024/01/17 10:33:46;;;;;;;;;;;;;;;-2.33;100.00;99213.22;4976782;28;20046;-70
2024/01/17 10:36:12;;;;;;;;;;;;;;;-2.21;100.00;99205.63;4994041;28;19925;-70
2024/01/17 10:38:37;;;;;;;;;;;;;;;-2.16;100.00;99201.84;4979307;28;19922;-70
2024/01/17 10:41:04;;;;;;;;;;;;;;;-2.13;100.00;99185.91;4986819;28;20403;-70
2024/01/17 10:43:29;;;;;;;;;;;;;;;-2.04;100.00;99183.75;4974691;28;19984;-70
2024/01/17 10:45:55;;;;;;;;;;;;;;;-2.08;100.00;99185.66;4976435;28;20376;-71
2024/01/17 10:48:22;;;;;;;;;;;;;;;-2.06;100.00;99190.84;4971618;28;19922;-70
2024/01/17 10:50:47;;;;;;;;;;;;;;;-2.23;100.00;99186.47;4979674;28;19928;-71
2024/01/17 10:53:15;;;;;;;;;;;;;;;-2.21;100.00;99188.06;4969729;28;20000;-70
2024/01/17 10:55:44;;;;;;;;;;;;;;;-2.15;100.00;99186.94;4979032;28;19929;-70
2024/01/17 10:58:09;;;;;;;;;;;;;;;-2.14;100.00;99184.19;4971234;28;19922;-70
2024/01/17 11:00:35;;;;;;;;;;;;;;;-2.04;100.00;99176.69;4984251;28;20270;-70
2024/01/17 11:03:02;;;;;;;;;;;;;;;-2.06;100.00;99167.19;4995032;28;19926;-70
2024/01/17 11:05:30;;;;;;;;;;;;;;;-2.03;100.00;99157.34;4976916;28;20295;-71
2024/01/17 11:07:55;;;;;;;;;;;;;;;-2.02;100.00;99145.88;4967717;28;19929;-71
2024/01/17 11:10:20;;;;;;;;;;;;;;;-1.89;100.00;99143.44;4976462;28;19918;-71
2024/01/17 11:12:45;;;;;;;;;;;;;;;-1.87;100.00;99141.59;4980363;28;19969;-70
2024/01/17 11:15:11;;;;;;;;;;;;;;;-1.88;100.00;99144.31;4975184;28;20261;-71
2024/01/17 11:17:36;;;;;;;;;;;;;;;-1.89;100.00;99140.00;4980586;28;20498;-70
2024/01/17 11:20:08;;;;;;;;;;;;;;;-1.85;100.00;99139.72;4982215;28;20434;-71
2024/01/17 11:22:37;;;;;;;;;;;;;;;-1.87;100.00;99128.44;4993831;28;19968;-71
2024/01/17 11:25:10;;;;;;;;;;;;;;;-1.90;100.00;99131.22;4978501;28;19976;-71
2024/01/17 11:27:54;;;;;;;;;;;;;;;-1.90;100.00;99125.13;4978504;28;20032;-71
2024/01/17 11:30:38;;;;;;;;;;;;;;;-1.88;100.00;99116.22;4977252;28;19921;-71
2024/01/17 11:33:10;;;;;;;;;;;;;;;-1.96;100.00;99113.13;4978448;28;19918;-71
2024/01/17 11:35:39;;;;;;;;;;;;;;;-2.01;100.00;99112.56;4992691;28;19922;-71
2024/01/17 11:38:06;;;;;;;;;;;;;;;-2.06;100.00;99104.06;4972796;28;19965;-71
2024/01/17 11:40:32;;;;;;;;;;;;;;;-2.16;100.00;99109.81;4993720;28;19925;-71
2024/01/17 11:42:57;;;;;;;;;;;;;;;-2.09;100.00;99102.44;4979140;28;20365;-71
2024/01/17 11:45:22;;;;;;;;;;;;;;;-2.06;100.00;99093.53;4978134;28;19921;-71
2024/01/17 11:47:55;;;;;;;;;;;;;;;-2.08;100.00;99093.59;4972597;28;19925;-71
2024/01/17 11:50:20;;;;;;;;;;;;;;;-1.96;100.00;99090.31;4992515;28;20196;-71
2024/01/17 11:52:45;;;;;;;;;;;;;;;-1.90;100.00;99085.69;4986289;28;20399;-71
2024/01/17 11:55:11;;;;;;;;;;;;;;;-1.99;100.00;99071.25;4975680;28;19933;-71
2024/01/17 11:57:36;;;;;;;;;;;;;;;-1.89;100.00;99074.22;4977169;28;19921;-71
2024/01/17 12:00:02;;;;;;;;;;;;;;;-1.83;100.00;99072.09;4973990;28;19976;-71
2024/01/17 12:02:34;;;;;;;;;;;;;;;-1.89;100.00;99064.53;4976802;28;19956;-71
2024/01/17 12:04:59;;;;;;;;;;;;;;;-1.80;100.00;99065.81;4963443;28;20262;-70
2024/01/17 12:07:24;;;;;;;;;;;;;;;-1.77;100.00;99060.38;4976529;28;19928;-71
2024/01/17 12:09:50;;;;;;;;;;;;;;;-1.72;100.00;99050.44;4978721;28;19941;-70
2024/01/17 12:12:19;;;;;;;;;;;;;;;-1.62;100.00;99040.25;4977923;28;19929;-71
2024/01/17 12:14:44;;;;;;;;;;;;;;;-1.54;100.00;99030.16;4970240;28;19918;-71
2024/01/17 12:17:10;;;;;;;;;;;;;;;-1.45;100.00;99028.75;4979233;28;19925;-70
2024/01/17 12:19:35;;;;;;;;;;;;;;;-1.32;100.00;99021.00;4978571;28;19926;-70
2024/01/17 12:22:00;;;;;;;;;;;;;;;-1.22;100.00;99022.19;4976918;28;19926;-70
2024/01/17 12:24:25;;;;;;;;;;;;;;;-1.15;100.00;99019.16;4976532;28;20154;-71
2024/01/17 12:26:51;;;;;;;;;;;;;;;-1.15;100.00;99013.91;4974463;28;19972;-70